Future City, Illinois
Current Conditions -  °F | °C
As of 1:15 PM on Thursday 18 Dec 2014 (Local Time) from KCIR Reporting Station
Overcast Overcast  
Wind Chill: 32°   Ceiling: 900
Heat Index: 37°   Visibility: 7mi
Dew Point: 35°   Wind: 6mph
Humidity: 92%   Direction: 50°NE
Pressure: 30.24"   Gusts: NA
Location:  37.048°N, 89.2036°W
Report Text: KCIR 181915Z AUTO 05005KT 7SM OVC009 03/02 A3024 RMK AO2 T00270015
Loading
Personal Weather Stations






























Interactive Weather Map New forecast layout! Learn more

10-Day Weather Forecast

Advertisements
Track Severe Weather on mobile